createdAt,value
2016-10-27T04:52:23.343Z,55
2016-10-27T04:54:22.419Z,55
2016-10-27T04:56:20.808Z,55
2016-10-27T04:58:19.574Z,55
2016-10-27T05:00:17.464Z,54
2016-10-27T05:02:17.288Z,53
2016-10-27T05:04:17.734Z,53
2016-10-27T05:06:16.473Z,52
2016-10-27T05:08:15.051Z,52
2016-10-27T05:10:15.676Z,52
2016-10-27T05:12:15.727Z,51
2016-10-27T05:14:17.396Z,51
2016-10-27T05:16:18.077Z,51
2016-10-27T05:18:20.928Z,50
2016-10-27T05:20:18.412Z,50
2016-10-27T05:22:20.811Z,50
2016-10-27T05:24:17.410Z,50
2016-10-27T05:26:17.460Z,50
2016-10-27T05:28:19.203Z,50
2016-10-27T05:30:19.079Z,49
2016-10-27T05:32:17.589Z,49
2016-10-27T05:34:21.768Z,49
2016-10-27T05:36:19.412Z,49
2016-10-27T05:38:19.125Z,49
2016-10-27T05:40:18.318Z,49
2016-10-27T05:42:18.876Z,49
2016-10-27T05:44:19.860Z,49
2016-10-27T05:46:22.982Z,49
2016-10-27T05:48:20.272Z,49
2016-10-27T05:50:23.975Z,48
2016-10-27T05:52:22.761Z,48
2016-10-27T05:54:20.694Z,48
2016-10-27T05:56:27.278Z,48
2016-10-27T05:58:28.786Z,48
2016-10-27T06:00:27.348Z,48
2016-10-27T06:02:24.887Z,49
2016-10-27T06:04:25.960Z,49
2016-10-27T06:06:32.443Z,49
2016-10-27T06:08:30.037Z,49
2016-10-27T06:10:04.770Z,50
2016-10-27T06:12:07.072Z,49
2016-10-27T06:14:04.789Z,49
2016-10-27T06:16:04.307Z,49
2016-10-27T06:18:00.893Z,49
2016-10-27T06:19:31.351Z,49
2016-10-27T06:21:24.996Z,48
2016-10-27T06:23:34.236Z,48
2016-10-27T06:25:32.657Z,48
2016-10-27T06:27:30.885Z,48
2016-10-27T06:29:29.643Z,49
2016-10-27T06:31:28.327Z,49
2016-10-27T06:33:29.098Z,49
2016-10-27T06:35:28.625Z,49
2016-10-27T06:37:33.051Z,49
2016-10-27T06:39:26.066Z,49
2016-10-27T06:40:48.661Z,50
2016-10-27T06:44:09.853Z,49
2016-10-27T06:47:28.309Z,48
2016-10-27T06:49:27.287Z,47
2016-10-27T06:50:51.759Z,47
2016-10-27T06:52:48.718Z,47
2016-10-27T06:54:49.627Z,47
2016-10-27T06:56:49.257Z,47
2016-10-27T06:58:46.393Z,47
2016-10-27T07:00:48.194Z,48
2016-10-27T07:02:45.930Z,48
2016-10-27T07:04:46.484Z,48
2016-10-27T07:06:45.901Z,48
2016-10-27T07:08:47.144Z,48
2016-10-27T07:10:45.255Z,48
2016-10-27T07:12:46.300Z,48
2016-10-27T07:14:46.339Z,48
2016-10-27T07:16:46.439Z,48
2016-10-27T07:18:46.030Z,49
2016-10-27T07:20:43.837Z,49
2016-10-27T07:22:45.753Z,49
2016-10-27T07:24:46.012Z,49
2016-10-27T07:26:44.772Z,49
2016-10-27T07:28:43.809Z,49
2016-10-27T07:30:43.152Z,49
2016-10-27T07:32:42.583Z,49
2016-10-27T07:34:42.795Z,49
2016-10-27T07:36:43.423Z,49
2016-10-27T07:38:41.508Z,49
2016-10-27T07:40:43.005Z,49
2016-10-27T07:42:41.988Z,49
2016-10-27T07:44:43.792Z,49
2016-10-27T07:46:43.233Z,49
2016-10-27T07:48:42.669Z,49
2016-10-27T07:50:44.430Z,48
2016-10-27T07:52:45.104Z,49
2016-10-27T07:54:43.163Z,48
2016-10-27T07:56:41.843Z,48
2016-10-27T07:58:43.823Z,48
2016-10-27T08:00:43.709Z,48
2016-10-27T08:02:43.263Z,48
2016-10-27T08:04:42.628Z,48
2016-10-27T08:06:46.503Z,48
2016-10-27T08:08:41.521Z,48
2016-10-27T08:10:42.205Z,48
2016-10-27T08:12:42.787Z,48
2016-10-27T08:14:43.168Z,48
2016-10-27T08:16:39.817Z,48
2016-10-27T08:18:43.751Z,48
2016-10-27T08:20:42.812Z,48
2016-10-27T08:22:41.587Z,48
2016-10-27T08:24:40.256Z,47
2016-10-27T08:26:41.390Z,47
2016-10-27T08:28:40.710Z,47
2016-10-27T08:30:40.026Z,47
2016-10-27T08:32:41.285Z,47
2016-10-27T08:34:41.673Z,47
2016-10-27T08:36:42.253Z,47
2016-10-27T08:38:43.902Z,47
2016-10-27T08:40:43.123Z,47
2016-10-27T08:42:40.759Z,47
2016-10-27T08:44:40.327Z,47
2016-10-27T08:46:42.398Z,47
2016-10-27T08:48:40.746Z,47
2016-10-27T08:50:41.419Z,47
2016-10-27T08:52:38.349Z,47
2016-10-27T08:54:41.068Z,47
2016-10-27T08:56:38.420Z,47
2016-10-27T08:58:41.395Z,47
2016-10-27T09:00:42.257Z,46
2016-10-27T09:02:40.547Z,46
2016-10-27T09:04:41.664Z,46
2016-10-27T09:06:39.797Z,46
2016-10-27T09:08:40.058Z,46
2016-10-27T09:10:44.400Z,46
2016-10-27T09:12:42.692Z,46
2016-10-27T09:14:47.513Z,46
2016-10-27T09:16:52.874Z,46
2016-10-27T09:18:58.581Z,46
2016-10-27T09:21:06.274Z,46
2016-10-27T09:23:04.067Z,46
2016-10-27T09:24:56.523Z,46
2016-10-27T09:27:00.734Z,46
2016-10-27T09:29:06.526Z,46
2016-10-27T09:31:06.845Z,46
2016-10-27T09:33:10.748Z,46
2016-10-27T09:35:13.458Z,46
2016-10-27T09:37:14.604Z,46
2016-10-27T09:39:10.392Z,45
2016-10-27T09:41:12.000Z,45
2016-10-27T09:43:14.417Z,45
2016-10-27T09:45:13.728Z,45
2016-10-27T09:47:15.376Z,45
2016-10-27T09:49:13.883Z,45
2016-10-27T09:51:17.533Z,45
2016-10-27T09:53:13.548Z,45
2016-10-27T09:55:13.548Z,45
2016-10-27T09:57:12.618Z,45
2016-10-27T09:59:13.832Z,45
2016-10-27T10:01:12.998Z,45
2016-10-27T10:03:16.595Z,45
2016-10-27T10:05:14.723Z,45
2016-10-27T10:07:14.566Z,45
2016-10-27T10:09:16.953Z,45
2016-10-27T10:11:13.678Z,46
2016-10-27T10:13:14.228Z,46
2016-10-27T10:15:14.514Z,46
2016-10-27T10:17:13.921Z,46
2016-10-27T10:19:13.774Z,46
2016-10-27T10:21:11.356Z,46
2016-10-27T10:23:14.329Z,46
2016-10-27T10:25:14.613Z,46
2016-10-27T10:27:11.646Z,46
2016-10-27T10:29:13.475Z,46
2016-10-27T10:31:15.950Z,46
2016-10-27T10:33:15.445Z,46
2016-10-27T10:35:17.494Z,46
2016-10-27T10:37:13.955Z,46
2016-10-27T10:39:16.758Z,46
2016-10-27T10:41:16.679Z,46
2016-10-27T10:43:15.918Z,47
2016-10-27T10:45:16.419Z,47
2016-10-27T10:47:17.908Z,46
2016-10-27T10:49:16.644Z,46
2016-10-27T10:51:16.812Z,46
2016-10-27T10:53:12.329Z,46
2016-10-27T10:55:14.526Z,46
2016-10-27T10:57:13.464Z,46
2016-10-27T10:59:14.696Z,46
2016-10-27T11:01:11.761Z,46
2016-10-27T11:03:12.137Z,46
2016-10-27T11:05:13.787Z,46
2016-10-27T11:07:13.997Z,46
2016-10-27T11:09:12.881Z,46
2016-10-27T11:11:12.131Z,45
2016-10-27T11:13:11.771Z,45
2016-10-27T11:15:11.816Z,45
2016-10-27T11:17:13.307Z,46
2016-10-27T11:19:12.423Z,47
2016-10-27T11:21:13.893Z,47
2016-10-27T11:23:12.889Z,47
2016-10-27T11:25:14.398Z,47
2016-10-27T11:27:14.841Z,47
2016-10-27T11:29:13.873Z,47
2016-10-27T11:31:11.682Z,47
2016-10-27T11:33:13.849Z,47
2016-10-27T11:35:14.372Z,47
2016-10-27T11:37:10.806Z,47
2016-10-27T11:39:10.892Z,47
2016-10-27T11:41:14.561Z,46
2016-10-27T11:43:12.981Z,46
2016-10-27T11:45:12.268Z,46
2016-10-27T11:47:13.357Z,46
2016-10-27T11:49:12.784Z,46
2016-10-27T11:51:11.822Z,46
2016-10-27T11:53:11.826Z,46
2016-10-27T11:55:13.120Z,46
2016-10-27T11:57:16.494Z,46
2016-10-27T11:59:14.810Z,46
2016-10-27T12:01:15.688Z,46
2016-10-27T12:03:13.221Z,46
2016-10-27T12:05:14.204Z,46
2016-10-27T12:07:11.803Z,46
2016-10-27T12:09:14.514Z,45
2016-10-27T12:11:11.093Z,45
2016-10-27T12:13:15.178Z,46
2016-10-27T12:15:10.761Z,46
2016-10-27T12:17:10.787Z,46
2016-10-27T12:19:11.664Z,46
2016-10-27T12:21:15.257Z,46
2016-10-27T12:23:13.179Z,46
2016-10-27T12:25:13.548Z,46
2016-10-27T12:27:15.704Z,46
2016-10-27T12:29:14.381Z,46
2016-10-27T12:31:15.961Z,46
2016-10-27T12:33:19.876Z,46
2016-10-27T12:35:20.418Z,46
2016-10-27T12:37:18.500Z,46
2016-10-27T12:39:17.188Z,46
2016-10-27T12:41:21.402Z,46
2016-10-27T12:43:13.928Z,46
2016-10-27T12:45:17.253Z,46
2016-10-27T12:47:15.780Z,46
2016-10-27T12:49:15.820Z,46
2016-10-27T12:51:14.102Z,47
2016-10-27T12:53:16.551Z,47
2016-10-27T12:55:17.822Z,47
2016-10-27T12:57:18.131Z,47
2016-10-27T12:59:17.392Z,47
2016-10-27T13:01:17.445Z,47
2016-10-27T13:03:17.129Z,47
2016-10-27T13:05:17.774Z,47
2016-10-27T13:07:16.460Z,47
2016-10-27T13:09:16.719Z,47
2016-10-27T13:11:16.112Z,47
2016-10-27T13:13:19.840Z,47
2016-10-27T13:15:14.724Z,47
2016-10-27T13:17:19.942Z,47
2016-10-27T13:19:17.868Z,47
2016-10-27T13:21:15.298Z,47
2016-10-27T13:23:14.435Z,47
2016-10-27T13:25:18.440Z,47
2016-10-27T13:27:15.588Z,47
2016-10-27T13:29:15.258Z,47
2016-10-27T13:31:15.286Z,47
2016-10-27T13:33:14.153Z,47
2016-10-27T13:35:19.470Z,47
2016-10-27T13:37:16.707Z,47
2016-10-27T13:39:17.655Z,47
2016-10-27T13:41:15.994Z,47
